Bruce Mines, Canada
Current Conditions -  °F | °C
As of 3:35 AM on Thursday 27 Nov 2014 (Local Time) from KDRM Reporting Station
Light Snow Light Snow  
Wind Chill: -3°   Ceiling: 3700
Heat Index: -3°   Visibility: 4mi
Dew Point: -4°   Wind: 0mph
Humidity: 97%   Direction: NA
Pressure: 30.1"   Gusts: NA
Location:  46.3°N, 83.79°W
Report Text: KDRM 270835Z AUTO 00000KT 4SM -SN SCT010 OVC037 M03/M03 A3010 RMK AO2 T10311035
Loading
Personal Weather Stations






























Interactive Weather Map New forecast layout! Learn more

10-Day Weather Forecast

Advertisements
Track Severe Weather on mobile